Time;durP1;ratioP1;P1;durP2;ratioP2;P2;SDS_P1;SDS_P2;PMS_P1;PMS_P2;Temp;Humidity;BMP_temperature;BMP_pressure;BME280_temperature;BME280_humidity;BME280_pressure;Samples;Min_cycle;Max_cycle;Signal;HPM_P1;HPM_P2
2022/08/17 00:01:12;;;;;;;6.03;5.73;;;24.90;44.00;;;;;;5069251;28;20456;-69
2022/08/17 00:03:41;;;;;;;6.53;6.23;;;25.00;44.10;;;;;;5061207;28;20853;-66
2022/08/17 00:06:13;;;;;;;5.90;5.60;;;24.90;44.00;;;;;;5069409;27;20430;-64
2022/08/17 00:08:43;;;;;;;6.17;5.87;;;24.90;44.00;;;;;;5067990;28;20464;-65
2022/08/17 00:11:32;;;;;;;5.37;5.17;;;24.90;44.00;;;;;;5074414;27;20452;-69
2022/08/17 00:14:03;;;;;;;6.60;6.13;;;24.90;43.90;;;;;;5072875;27;20457;-66
2022/08/17 00:16:33;;;;;;;6.20;5.83;;;24.90;44.00;;;;;;5060077;27;20470;-64
2022/08/17 00:19:05;;;;;;;6.13;5.83;;;24.90;44.00;;;;;;5073839;27;20445;-67
2022/08/17 00:21:32;;;;;;;6.27;5.87;;;24.90;44.00;;;;;;5064282;28;20539;-67
2022/08/17 00:23:58;;;;;;;5.90;5.60;;;24.90;43.90;;;;;;5082684;27;20466;-65
2022/08/17 00:26:25;;;;;;;6.87;6.47;;;24.90;44.00;;;;;;5065997;27;20453;-66
2022/08/17 00:28:51;;;;;;;6.23;5.90;;;24.90;43.90;;;;;;5077232;27;20560;-65
2022/08/17 00:31:17;;;;;;;6.50;6.20;;;24.90;43.90;;;;;;5077129;28;20436;-64
2022/08/17 00:33:44;;;;;;;6.13;5.93;;;24.90;43.90;;;;;;5077137;27;20518;-66
2022/08/17 00:36:12;;;;;;;6.50;6.10;;;24.90;43.90;;;;;;5062863;28;20213;-67
2022/08/17 00:38:38;;;;;;;6.10;5.80;;;24.90;44.00;;;;;;5066807;27;20492;-64
2022/08/17 00:41:12;;;;;;;6.97;6.57;;;24.90;43.90;;;;;;5080617;27;20955;-68
2022/08/17 00:43:56;;;;;;;6.50;6.20;;;24.90;43.80;;;;;;5070932;27;20236;-64
2022/08/17 00:46:28;;;;;;;6.23;5.93;;;24.90;43.90;;;;;;5077264;28;20544;-67
2022/08/17 00:48:54;;;;;;;6.23;5.90;;;24.90;43.90;;;;;;5074678;27;20464;-65
2022/08/17 00:51:41;;;;;;;6.63;6.23;;;24.90;43.90;;;;;;5076021;28;20453;-66
2022/08/17 00:54:25;;;;;;;6.53;6.03;;;24.90;44.00;;;;;;5074419;27;20225;-65
2022/08/17 00:56:55;;;;;;;6.20;5.90;;;24.90;43.90;;;;;;5068681;28;20460;-65
2022/08/17 00:59:27;;;;;;;6.27;5.97;;;24.90;43.90;;;;;;5071732;27;20437;-65
2022/08/17 01:01:53;;;;;;;7.30;6.90;;;24.90;43.80;;;;;;5066952;28;20480;-67
2022/08/17 01:04:20;;;;;;;6.40;6.07;;;24.90;43.80;;;;;;5065134;28;20475;-72
2022/08/17 01:06:48;;;;;;;6.63;6.33;;;24.90;43.80;;;;;;5076400;28;20294;-68
2022/08/17 01:09:15;;;;;;;6.40;6.00;;;24.90;43.80;;;;;;5071662;28;20457;-67
2022/08/17 01:11:42;;;;;;;5.80;5.60;;;24.90;43.80;;;;;;5071762;28;22342;-64
2022/08/17 01:14:07;;;;;;;5.97;5.67;;;24.90;43.80;;;;;;5079212;28;21018;-64
2022/08/17 01:16:36;;;;;;;6.33;5.97;;;24.90;43.80;;;;;;5081715;28;20535;-64
2022/08/17 01:19:06;;;;;;;6.80;6.40;;;24.90;43.80;;;;;;5067172;28;20238;-69
2022/08/17 01:21:35;;;;;;;6.37;6.07;;;24.90;43.70;;;;;;5083064;27;20476;-66
2022/08/17 01:24:01;;;;;;;6.23;5.93;;;24.90;43.80;;;;;;5080034;27;20462;-66
2022/08/17 01:26:29;;;;;;;6.40;6.10;;;24.90;43.60;;;;;;5068832;28;20568;-64
2022/08/17 01:28:55;;;;;;;6.77;6.47;;;24.90;43.70;;;;;;5058862;28;20461;-65
2022/08/17 01:31:23;;;;;;;6.70;6.40;;;24.90;43.70;;;;;;5077722;27;20449;-65
2022/08/17 01:33:49;;;;;;;6.70;6.40;;;24.90;43.70;;;;;;5069539;27;20255;-66
2022/08/17 01:36:14;;;;;;;6.80;6.40;;;24.90;43.70;;;;;;5071433;27;20680;-70
2022/08/17 01:38:40;;;;;;;6.97;6.57;;;24.90;43.60;;;;;;5076247;27;20212;-65
2022/08/17 01:41:11;;;;;;;6.60;6.30;;;24.90;43.60;;;;;;5079879;28;20221;-63
2022/08/17 01:43:46;;;;;;;6.67;6.27;;;24.90;43.70;;;;;;5067765;28;20243;-66
2022/08/17 01:46:17;;;;;;;6.40;6.07;;;24.90;43.60;;;;;;5070090;27;20597;-68
2022/08/17 01:48:46;;;;;;;6.80;6.47;;;24.90;43.70;;;;;;5065859;27;20442;-64
2022/08/17 01:51:12;;;;;;;7.10;6.70;;;24.90;43.60;;;;;;5076022;27;20460;-69
2022/08/17 01:53:41;;;;;;;7.23;6.93;;;24.90;43.60;;;;;;5066391;27;20449;-67
2022/08/17 01:56:13;;;;;;;6.53;6.23;;;24.90;43.50;;;;;;5059631;27;20303;-67
2022/08/17 01:58:40;;;;;;;6.50;6.13;;;24.80;43.50;;;;;;5067877;27;20437;-64
2022/08/17 02:01:07;;;;;;;6.60;6.20;;;24.90;43.80;;;;;;5077454;27;20475;-64
2022/08/17 02:03:34;;;;;;;7.00;6.70;;;24.90;43.70;;;;;;5072578;27;20500;-64
2022/08/17 02:06:00;;;;;;;7.10;6.80;;;24.90;43.60;;;;;;5073393;28;20437;-67
2022/08/17 02:08:27;;;;;;;7.10;6.60;;;24.80;43.40;;;;;;5066695;28;20463;-64
2022/08/17 02:10:54;;;;;;;6.67;6.27;;;24.90;43.50;;;;;;5061002;27;20465;-64
2022/08/17 02:13:20;;;;;;;6.37;6.07;;;24.90;43.70;;;;;;5062493;28;20983;-68
2022/08/17 02:15:45;;;;;;;6.80;6.40;;;24.90;43.60;;;;;;5073358;27;20464;-68
2022/08/17 02:18:14;;;;;;;6.40;6.10;;;24.80;43.50;;;;;;5072572;27;20465;-72
2022/08/17 02:20:41;;;;;;;7.20;6.80;;;24.80;43.50;;;;;;5069129;27;20240;-69
2022/08/17 02:23:09;;;;;;;6.70;6.40;;;24.90;43.60;;;;;;5063939;27;20560;-68
2022/08/17 02:25:37;;;;;;;6.83;6.47;;;24.90;43.70;;;;;;5072158;28;20477;-65
2022/08/17 02:28:04;;;;;;;7.07;6.70;;;24.80;43.50;;;;;;5072870;28;20501;-71
2022/08/17 02:30:30;;;;;;;6.80;6.50;;;24.80;43.60;;;;;;5066265;28;21022;-67
2022/08/17 02:32:55;;;;;;;7.23;6.77;;;24.90;43.70;;;;;;5066815;28;20474;-69
2022/08/17 02:35:21;;;;;;;6.43;6.10;;;24.90;43.70;;;;;;5069811;28;20224;-74
2022/08/17 02:37:48;;;;;;;6.87;6.47;;;24.80;43.50;;;;;;5069616;28;20224;-66
2022/08/17 02:40:14;;;;;;;7.17;6.77;;;24.80;43.60;;;;;;5068223;27;20225;-73
2022/08/17 02:42:42;;;;;;;6.90;6.60;;;24.80;43.60;;;;;;5066889;27;20465;-66
2022/08/17 02:45:15;;;;;;;6.43;6.13;;;24.80;43.60;;;;;;5057411;28;20450;-73
2022/08/17 02:47:41;;;;;;;6.90;6.50;;;24.80;43.60;;;;;;5060668;27;20460;-66
2022/08/17 02:50:09;;;;;;;7.50;7.10;;;24.80;43.50;;;;;;5069423;27;20449;-64
2022/08/17 02:52:38;;;;;;;6.40;6.00;;;24.90;43.80;;;;;;5066926;27;20513;-64
2022/08/17 02:55:14;;;;;;;6.70;6.40;;;24.80;43.60;;;;;;5065521;27;20531;-63
2022/08/17 02:57:39;;;;;;;7.10;6.70;;;24.80;43.60;;;;;;5067896;27;20503;-64
2022/08/17 03:00:12;;;;;;;6.80;6.50;;;24.80;43.70;;;;;;5065215;28;20869;-66
2022/08/17 03:02:42;;;;;;;7.63;7.23;;;24.80;43.60;;;;;;5059696;27;20225;-68
2022/08/17 03:05:09;;;;;;;7.20;6.80;;;24.80;43.60;;;;;;5058374;28;20457;-66
2022/08/17 03:07:36;;;;;;;7.33;6.83;;;24.80;43.70;;;;;;5069194;28;20457;-65
2022/08/17 03:10:02;;;;;;;6.47;6.17;;;24.80;43.60;;;;;;5060617;28;20896;-67
2022/08/17 03:12:32;;;;;;;6.70;6.30;;;24.80;43.60;;;;;;5068172;28;20842;-64
2022/08/17 03:15:00;;;;;;;6.60;6.30;;;24.80;43.60;;;;;;5064263;27;20458;-68
2022/08/17 03:17:26;;;;;;;6.93;6.63;;;24.80;43.70;;;;;;5050224;28;20457;-70
2022/08/17 03:19:51;;;;;;;7.10;6.80;;;24.80;43.60;;;;;;5070457;28;20993;-72
2022/08/17 03:22:17;;;;;;;6.90;6.60;;;24.80;43.60;;;;;;5064135;28;20284;-69
2022/08/17 03:24:43;;;;;;;7.33;6.93;;;24.80;43.70;;;;;;5071256;28;20315;-63
2022/08/17 03:27:08;;;;;;;7.23;6.73;;;24.80;43.60;;;;;;5078577;27;20223;-66
2022/08/17 03:29:34;;;;;;;6.63;6.33;;;24.80;43.70;;;;;;5065604;27;20232;-64
2022/08/17 03:32:00;;;;;;;6.73;6.33;;;24.80;43.70;;;;;;5064041;27;20216;-65
2022/08/17 03:34:26;;;;;;;6.97;6.67;;;24.80;43.60;;;;;;5061409;27;20229;-64
2022/08/17 03:36:52;;;;;;;6.63;6.33;;;24.80;43.70;;;;;;5070769;28;20465;-69
2022/08/17 03:39:17;;;;;;;6.90;6.40;;;24.90;43.90;;;;;;5067870;27;20228;-63
2022/08/17 03:41:43;;;;;;;6.23;5.93;;;24.80;44.50;;;;;;5070644;27;20249;-63
2022/08/17 03:44:08;;;;;;;6.50;6.20;;;24.80;43.70;;;;;;5064626;28;20285;-66
2022/08/17 03:57:31;;;;;;;6.37;6.07;;;24.80;43.70;;;;;;5072161;27;20469;-63
2022/08/17 03:59:56;;;;;;;6.60;6.20;;;24.80;43.70;;;;;;5077888;27;20821;-72
2022/08/17 04:02:29;;;;;;;6.47;6.17;;;24.80;43.70;;;;;;5065102;28;20220;-63
2022/08/17 04:04:55;;;;;;;6.70;6.30;;;24.80;43.70;;;;;;5065137;27;20213;-67
2022/08/17 04:07:23;;;;;;;6.97;6.67;;;24.80;43.80;;;;;;5061685;27;22387;-65
2022/08/17 04:09:49;;;;;;;6.63;6.33;;;24.80;43.70;;;;;;5071931;27;20495;-66
2022/08/17 04:12:17;;;;;;;6.77;6.37;;;24.80;43.70;;;;;;5079072;27;20545;-66
2022/08/17 04:14:43;;;;;;;6.80;6.50;;;24.80;43.70;;;;;;5069792;28;20581;-64
2022/08/17 04:17:08;;;;;;;6.90;6.60;;;24.80;43.80;;;;;;5073880;27;20453;-63
2022/08/17 04:19:34;;;;;;;6.63;6.33;;;24.80;43.80;;;;;;5066237;27;20242;-63
2022/08/17 04:22:00;;;;;;;6.40;6.00;;;24.80;43.80;;;;;;5057643;27;20221;-70
2022/08/17 04:24:26;;;;;;;6.80;6.40;;;24.80;43.70;;;;;;5061928;27;20237;-80
2022/08/17 04:26:51;;;;;;;6.40;6.10;;;24.80;43.70;;;;;;5065528;28;20240;-70
2022/08/17 04:29:17;;;;;;;6.30;5.90;;;24.80;43.70;;;;;;5057619;27;20214;-66
2022/08/17 04:31:43;;;;;;;6.90;6.60;;;24.80;43.70;;;;;;5063017;27;20233;-71
2022/08/17 04:34:10;;;;;;;7.07;6.70;;;24.80;43.50;;;;;;5068495;27;20243;-70
2022/08/17 04:36:35;;;;;;;6.70;6.40;;;24.90;44.30;;;;;;5071873;27;21458;-66
2022/08/17 04:39:01;;;;;;;6.60;6.30;;;24.90;43.50;;;;;;5067104;28;20539;-67
2022/08/17 04:44:11;;;;;;;7.27;6.77;;;24.90;43.50;;;;;;5052744;27;20243;-66
2022/08/17 04:46:37;;;;;;;6.20;5.90;;;24.90;43.50;;;;;;5055910;28;20458;-69
2022/08/17 04:49:06;;;;;;;7.07;6.60;;;24.90;43.50;;;;;;5049336;27;20264;-72
2022/08/17 04:51:44;;;;;;;6.20;5.80;;;24.90;43.50;;;;;;5066894;27;20821;-74
2022/08/17 04:54:13;;;;;;;5.87;5.57;;;24.90;43.50;;;;;;5072150;28;20453;-69
2022/08/17 04:56:39;;;;;;;6.97;6.57;;;25.00;43.60;;;;;;5069000;27;20461;-66
2022/08/17 04:59:15;;;;;;;6.47;6.10;;;25.00;43.60;;;;;;5068178;28;20471;-74
2022/08/17 05:01:42;;;;;;;6.30;6.00;;;25.00;43.60;;;;;;5070633;28;20444;-66
2022/08/17 05:04:11;;;;;;;6.10;5.80;;;25.00;43.60;;;;;;5069293;28;20959;-74
2022/08/17 05:06:37;;;;;;;6.20;5.90;;;25.00;43.60;;;;;;5064581;27;20960;-65
2022/08/17 05:09:03;;;;;;;6.40;6.00;;;25.00;43.60;;;;;;5071517;28;20448;-66
2022/08/17 05:11:30;;;;;;;6.37;6.07;;;25.00;43.60;;;;;;5067606;27;20213;-67
2022/08/17 05:13:57;;;;;;;6.40;6.00;;;25.00;43.60;;;;;;5054606;28;20572;-66
2022/08/17 05:16:25;;;;;;;6.20;6.00;;;25.00;43.60;;;;;;5068412;27;20450;-77
2022/08/17 05:18:51;;;;;;;6.70;6.40;;;25.00;43.60;;;;;;5076409;27;20908;-71
2022/08/17 05:21:19;;;;;;;6.03;5.73;;;25.00;43.60;;;;;;5072014;27;20485;-70
2022/08/17 05:23:45;;;;;;;6.40;6.10;;;25.00;43.60;;;;;;5064337;27;20503;-67
2022/08/17 05:26:13;;;;;;;5.30;5.10;;;25.00;43.60;;;;;;5066629;28;20610;-68
2022/08/17 05:28:39;;;;;;;5.60;5.20;;;25.00;43.60;;;;;;5067090;27;20285;-66
2022/08/17 05:31:04;;;;;;;6.00;5.60;;;25.00;43.60;;;;;;5067040;27;20556;-68
2022/08/17 05:33:33;;;;;;;5.30;5.00;;;25.00;43.60;;;;;;5078676;27;20654;-77
2022/08/17 05:36:00;;;;;;;5.50;5.20;;;25.00;43.60;;;;;;5071843;27;20244;-64
2022/08/17 05:38:28;;;;;;;9.97;5.30;;;25.00;43.60;;;;;;5075524;27;20599;-64
2022/08/17 05:40:54;;;;;;;6.37;5.50;;;25.00;43.50;;;;;;5061695;28;20478;-67
2022/08/17 05:43:21;;;;;;;5.30;5.00;;;25.00;43.50;;;;;;5067201;27;20481;-65
2022/08/17 05:46:02;;;;;;;5.57;5.27;;;25.00;43.40;;;;;;5080334;27;20456;-67
2022/08/17 05:48:32;;;;;;;5.83;5.50;;;25.00;43.40;;;;;;5077944;28;20868;-65
2022/08/17 05:51:22;;;;;;;5.40;5.20;;;25.00;43.50;;;;;;5074725;28;20462;-68
2022/08/17 05:54:03;;;;;;;5.73;5.43;;;25.00;43.40;;;;;;5076046;28;20598;-64
2022/08/17 05:56:47;;;;;;;5.20;4.90;;;25.00;43.50;;;;;;5076449;27;20515;-67
2022/08/17 05:59:50;;;;;;;5.47;5.17;;;25.00;43.40;;;;;;5077216;27;20492;-66
2022/08/17 06:02:31;;;;;;;5.73;5.43;;;25.00;43.40;;;;;;5068860;28;20900;-65
2022/08/17 06:05:13;;;;;;;5.70;5.30;;;25.00;43.50;;;;;;5069648;27;20545;-65
2022/08/17 06:07:54;;;;;;;5.40;5.10;;;25.00;43.50;;;;;;5070110;28;20518;-64
2022/08/17 06:10:37;;;;;;;5.60;5.30;;;24.90;43.40;;;;;;5075077;27;20456;-64
2022/08/17 06:13:27;;;;;;;5.33;5.13;;;24.90;43.40;;;;;;5074480;27;20532;-65
2022/08/17 06:16:00;;;;;;;5.60;5.30;;;24.90;43.50;;;;;;5078598;28;20548;-70
2022/08/17 06:18:33;;;;;;;5.77;5.47;;;25.00;43.50;;;;;;5069922;27;20928;-64
2022/08/17 06:21:03;;;;;;;5.07;4.87;;;24.90;43.50;;;;;;5066963;28;20481;-73
2022/08/17 06:23:52;;;;;;;5.40;5.10;;;24.90;43.40;;;;;;5068597;28;20572;-64
2022/08/17 06:26:22;;;;;;;4.53;4.33;;;25.00;43.40;;;;;;5065102;27;21290;-66
2022/08/17 06:29:15;;;;;;;5.07;4.77;;;25.00;43.40;;;;;;5068565;27;20472;-64
2022/08/17 06:31:41;;;;;;;4.60;4.40;;;25.00;43.50;;;;;;5069956;28;20444;-64
2022/08/17 06:34:09;;;;;;;5.07;4.70;;;24.90;43.40;;;;;;5063268;28;20526;-73
2022/08/17 06:36:47;;;;;;;4.80;4.50;;;25.00;43.50;;;;;;5077843;27;20224;-71
2022/08/17 06:39:46;;;;;;;5.30;5.00;;;25.00;43.50;;;;;;5071595;27;20838;-72
2022/08/17 06:42:39;;;;;;;4.90;4.60;;;25.00;43.40;;;;;;5077044;27;20559;-78
2022/08/17 06:45:21;;;;;;;6.00;5.60;;;25.00;43.50;;;;;;5059619;27;20433;-66
2022/08/17 06:47:50;;;;;;;5.67;5.30;;;25.00;43.50;;;;;;5062027;27;20476;-67
2022/08/17 06:50:23;;;;;;;6.20;5.80;;;25.00;43.40;;;;;;5071475;27;20480;-66
2022/08/17 06:53:06;;;;;;;6.23;5.73;;;25.00;43.20;;;;;;5067722;27;20808;-67
2022/08/17 06:55:51;;;;;;;5.53;5.23;;;25.00;43.20;;;;;;5066938;28;20453;-64
2022/08/17 06:58:21;;;;;;;5.93;5.27;;;25.00;43.20;;;;;;5073951;28;20624;-67
2022/08/17 07:00:49;;;;;;;6.20;5.80;;;25.00;43.20;;;;;;5072028;28;20461;-68
2022/08/17 07:03:32;;;;;;;6.00;5.70;;;25.00;43.20;;;;;;5061925;27;21314;-72
2022/08/17 07:06:04;;;;;;;5.87;5.57;;;25.00;43.10;;;;;;5059225;27;20461;-63
2022/08/17 07:08:36;;;;;;;5.57;5.27;;;25.00;43.20;;;;;;5069423;27;20460;-69
2022/08/17 07:11:19;;;;;;;5.70;5.40;;;25.00;43.10;;;;;;5074310;27;20454;-63
2022/08/17 07:13:53;;;;;;;5.93;5.47;;;25.00;43.20;;;;;;5071627;28;20472;-67
2022/08/17 07:16:35;;;;;;;5.43;5.13;;;25.00;43.20;;;;;;5065174;28;20479;-62
2022/08/17 07:19:01;;;;;;;6.20;5.80;;;25.00;43.20;;;;;;5075545;27;20914;-62
2022/08/17 07:21:48;;;;;;;5.40;5.10;;;25.00;43.30;;;;;;5057404;28;20953;-64
2022/08/17 07:24:28;;;;;;;6.40;6.00;;;25.00;43.30;;;;;;5064536;27;20219;-65
2022/08/17 07:27:11;;;;;;;5.60;5.30;;;25.00;43.40;;;;;;5062409;28;20579;-63
2022/08/17 07:29:40;;;;;;;5.90;5.60;;;25.00;43.40;;;;;;5071552;28;20493;-68
2022/08/17 07:32:08;;;;;;;6.50;6.00;;;25.00;43.50;;;;;;5068657;28;20483;-64
2022/08/17 07:35:13;;;;;;;6.00;5.70;;;25.00;43.50;;;;;;5066328;28;20441;-61
2022/08/17 07:37:41;;;;;;;5.50;5.10;;;25.00;43.50;;;;;;5069981;27;20444;-62
2022/08/17 07:40:29;;;;;;;5.43;5.23;;;25.00;43.60;;;;;;5082054;27;20476;-62
2022/08/17 07:43:22;;;;;;;5.33;5.03;;;25.00;43.60;;;;;;5083651;27;20940;-64
2022/08/17 07:49:11;;;;;;;6.33;5.87;;;25.00;43.60;;;;;;5079574;28;20815;-62
2022/08/17 07:51:39;;;;;;;6.10;5.63;;;25.00;43.60;;;;;;5082677;27;20465;-65
2022/08/17 07:54:14;;;;;;;6.07;5.77;;;25.00;43.60;;;;;;5074155;27;21001;-60
2022/08/17 07:57:02;;;;;;;5.90;5.60;;;25.00;43.60;;;;;;5079718;28;20531;-60
2022/08/17 07:59:39;;;;;;;6.03;5.73;;;25.00;43.60;;;;;;5076376;27;20472;-61
2022/08/17 08:02:26;;;;;;;6.20;5.87;;;25.00;43.60;;;;;;5080789;27;20463;-61
2022/08/17 08:05:03;;;;;;;6.17;5.87;;;25.00;43.60;;;;;;5076452;28;20469;-64
2022/08/17 08:07:41;;;;;;;7.20;6.70;;;25.00;43.60;;;;;;5069721;27;20471;-64
2022/08/17 08:10:13;;;;;;;6.57;6.17;;;25.00;43.60;;;;;;5067265;28;20448;-70
2022/08/17 08:13:00;;;;;;;6.23;5.93;;;25.00;43.60;;;;;;5072605;28;20465;-60
2022/08/17 08:15:36;;;;;;;6.53;6.20;;;25.00;43.60;;;;;;5069261;27;20461;-63
2022/08/17 08:18:05;;;;;;;6.20;5.90;;;25.00;43.60;;;;;;5067418;27;20533;-72
2022/08/17 08:21:00;;;;;;;7.37;6.87;;;25.00;43.60;;;;;;5071822;27;20473;-75
2022/08/17 08:24:04;;;;;;;7.07;6.63;;;25.00;43.60;;;;;;5066672;28;20583;-62
2022/08/17 08:26:39;;;;;;;6.00;5.70;;;25.00;43.60;;;;;;5006802;28;20458;-70
2022/08/17 08:29:30;;;;;;;6.00;5.50;;;25.00;43.60;;;;;;5070239;27;20948;-74
2022/08/17 08:32:24;;;;;;;6.40;6.10;;;25.00;43.60;;;;;;5082292;27;20536;-61
2022/08/17 08:35:32;;;;;;;7.57;7.07;;;25.00;43.60;;;;;;5081130;27;20468;-66
2022/08/17 08:38:00;;;;;;;7.23;6.90;;;25.00;43.60;;;;;;5072831;27;20462;-68
2022/08/17 08:40:32;;;;;;;7.30;6.77;;;25.00;43.60;;;;;;5066337;28;20493;-61
2022/08/17 08:43:28;;;;;;;7.70;7.30;;;25.00;43.60;;;;;;5079605;27;20457;-61
2022/08/17 08:46:23;;;;;;;7.40;6.90;;;25.00;43.60;;;;;;5072882;27;20457;-61
2022/08/17 08:49:03;;;;;;;7.40;6.93;;;25.00;43.60;;;;;;5070351;27;20823;-71
2022/08/17 08:51:44;;;;;;;7.80;7.30;;;25.00;43.60;;;;;;5075651;27;20808;-71
2022/08/17 08:54:17;;;;;;;7.60;7.00;;;25.00;43.60;;;;;;5072680;27;20549;-62
2022/08/17 08:57:02;;;;;;;8.63;7.63;;;25.00;43.60;;;;;;5080751;27;20970;-65
2022/08/17 08:59:34;;;;;;;7.07;6.67;;;25.00;43.60;;;;;;5057884;28;20458;-68
2022/08/17 09:02:21;;;;;;;7.80;7.30;;;25.00;43.60;;;;;;5066540;27;20470;-61
2022/08/17 09:05:10;;;;;;;8.43;7.80;;;25.00;43.60;;;;;;5053208;28;20570;-66
2022/08/17 09:07:54;;;;;;;8.00;7.50;;;25.00;43.60;;;;;;5065773;27;21088;-73
2022/08/17 09:10:25;;;;;;;8.87;8.17;;;25.00;43.70;;;;;;5075674;28;20536;-67
2022/08/17 09:13:12;;;;;;;7.87;7.40;;;25.00;43.70;;;;;;5067140;27;20606;-66
2022/08/17 09:15:47;;;;;;;7.80;7.13;;;25.00;43.60;;;;;;5069142;28;20525;-65
2022/08/17 09:18:32;;;;;;;7.10;6.60;;;25.00;43.80;;;;;;5060711;27;20456;-63
2022/08/17 09:21:06;;;;;;;7.73;7.00;;;25.00;43.60;;;;;;5065309;28;20520;-61
2022/08/17 09:23:38;;;;;;;7.63;7.13;;;25.00;43.70;;;;;;5075447;27;20456;-66
2022/08/17 09:26:21;;;;;;;8.17;7.57;;;25.00;43.70;;;;;;5081847;27;20483;-61
2022/08/17 09:28:50;;;;;;;8.30;7.80;;;25.00;43.70;;;;;;5064708;27;20449;-62
2022/08/17 09:31:37;;;;;;;7.07;6.67;;;25.00;43.70;;;;;;5066260;27;20465;-63
2022/08/17 09:34:11;;;;;;;7.77;7.33;;;25.00;43.80;;;;;;5063403;27;20445;-68
2022/08/17 09:37:06;;;;;;;9.10;8.27;;;25.00;43.60;;;;;;5072937;28;20474;-63
2022/08/17 09:39:37;;;;;;;8.80;8.10;;;25.00;43.60;;;;;;5076259;27;20488;-67
2022/08/17 09:42:13;;;;;;;8.73;8.03;;;25.00;43.70;;;;;;5073920;28;20538;-63
2022/08/17 09:44:54;;;;;;;8.03;7.50;;;25.00;43.60;;;;;;5068353;27;20489;-62
2022/08/17 09:47:44;;;;;;;8.67;7.80;;;25.00;43.60;;;;;;5075076;27;20467;-72
2022/08/17 09:50:20;;;;;;;7.63;7.13;;;25.00;43.60;;;;;;5074343;27;20541;-61
2022/08/17 09:52:47;;;;;;;8.27;7.80;;;25.00;43.60;;;;;;5079162;27;20471;-63
2022/08/17 09:55:12;;;;;;;9.30;8.40;;;25.00;43.60;;;;;;5073754;28;20472;-64
2022/08/17 09:58:23;;;;;;;8.37;7.87;;;25.00;43.60;;;;;;5074125;27;20823;-67
2022/08/17 10:00:56;;;;;;;8.87;8.27;;;25.00;43.60;;;;;;5078365;27;20228;-66
2022/08/17 10:03:47;;;;;;;8.13;7.60;;;25.00;43.60;;;;;;5062138;28;20547;-65
2022/08/17 10:06:26;;;;;;;8.27;7.77;;;25.00;43.60;;;;;;5075951;27;20445;-63
2022/08/17 10:09:20;;;;;;;8.33;7.73;;;25.00;43.60;;;;;;5078841;28;20472;-61
2022/08/17 10:12:22;;;;;;;8.37;7.87;;;25.00;43.60;;;;;;5077624;27;20464;-75
2022/08/17 10:14:49;;;;;;;8.07;7.57;;;25.00;43.60;;;;;;5072087;27;20452;-61
2022/08/17 10:17:23;;;;;;;8.20;7.70;;;25.00;43.60;;;;;;5082233;28;20456;-64
2022/08/17 10:20:04;;;;;;;9.23;8.53;;;25.00;44.40;;;;;;5079083;28;20539;-66
2022/08/17 10:28:21;;;;;;;9.07;8.50;;;25.00;43.60;;;;;;5075001;28;20491;-65
2022/08/17 10:30:56;;;;;;;9.80;9.00;;;25.00;43.60;;;;;;5075549;28;20473;-64
2022/08/17 10:33:31;;;;;;;9.37;8.67;;;25.00;43.60;;;;;;5070867;28;20967;-64
2022/08/17 10:36:10;;;;;;;10.00;9.20;;;25.00;43.60;;;;;;5065138;28;20492;-65
2022/08/17 10:38:44;;;;;;;9.07;8.43;;;25.00;43.60;;;;;;5072744;28;20998;-63
2022/08/17 10:41:32;;;;;;;9.03;8.33;;;25.10;43.60;;;;;;5057622;28;20515;-63
2022/08/17 10:44:03;;;;;;;10.07;9.13;;;25.10;43.50;;;;;;5059111;27;20476;-65
2022/08/17 10:47:04;;;;;;;9.53;8.63;;;25.10;43.50;;;;;;5091995;27;20460;-63
2022/08/17 10:49:35;;;;;;;10.30;8.77;;;25.10;43.30;;;;;;5059637;27;20461;-64
2022/08/17 10:52:20;;;;;;;10.27;9.50;;;25.10;43.40;;;;;;5066368;27;20441;-63
2022/08/17 10:54:57;;;;;;;8.73;8.07;;;25.10;43.40;;;;;;5068496;27;20460;-69
2022/08/17 10:57:30;;;;;;;8.10;7.60;;;25.10;43.60;;;;;;5074757;28;20932;-66
2022/08/17 10:59:57;;;;;;;7.77;7.37;;;25.10;43.60;;;;;;5068459;27;20465;-62
2022/08/17 11:02:30;;;;;;;7.70;7.20;;;25.10;43.60;;;;;;5073696;27;20468;-63
2022/08/17 11:05:21;;;;;;;8.70;8.20;;;25.10;43.60;;;;;;5073589;27;20515;-62
2022/08/17 11:08:29;;;;;;;8.00;7.50;;;25.10;43.60;;;;;;5072184;27;20449;-62
2022/08/17 11:11:22;;;;;;;17.57;9.33;;;25.10;43.60;;;;;;5045289;28;20512;-61
2022/08/17 11:14:07;;;;;;;89.60;18.90;;;25.10;43.60;;;;;;5070493;27;20488;-64
2022/08/17 11:16:44;;;;;;;52.97;15.77;;;25.10;43.60;;;;;;5076136;27;20646;-71
2022/08/17 11:19:19;;;;;;;39.43;15.60;;;25.10;43.60;;;;;;5079766;27;20483;-62
2022/08/17 11:21:57;;;;;;;30.30;11.80;;;25.10;44.00;;;;;;5081238;27;20460;-62
2022/08/17 11:24:41;;;;;;;26.73;11.60;;;25.10;44.00;;;;;;5081734;27;20531;-65
2022/08/17 11:27:09;;;;;;;17.30;10.30;;;25.10;44.10;;;;;;5082493;27;20475;-65
2022/08/17 11:29:46;;;;;;;11.00;8.30;;;25.10;44.30;;;;;;5073640;27;20460;-63
2022/08/17 11:32:39;;;;;;;10.30;8.77;;;25.10;44.40;;;;;;5077387;27;20464;-70
2022/08/17 11:35:14;;;;;;;9.93;8.93;;;25.10;44.50;;;;;;5074205;27;20545;-62
2022/08/17 11:38:19;;;;;;;9.10;8.20;;;25.10;44.60;;;;;;5083235;27;20550;-66
2022/08/17 11:41:19;;;;;;;10.47;9.60;;;25.10;44.60;;;;;;5074700;27;20537;-64
2022/08/17 11:44:22;;;;;;;9.03;8.30;;;25.10;44.70;;;;;;5078461;28;21013;-64
2022/08/17 11:53:05;;;;;;;8.73;8.13;;;25.00;44.80;;;;;;5080858;28;20875;-64
2022/08/17 11:55:34;;;;;;;8.30;7.80;;;25.00;45.00;;;;;;5078544;27;20456;-67
2022/08/17 11:58:24;;;;;;;9.10;8.40;;;25.00;45.10;;;;;;5076553;28;20216;-64
2022/08/17 12:01:00;;;;;;;8.20;7.70;;;25.00;45.10;;;;;;5077511;28;20453;-67
2022/08/17 12:03:31;;;;;;;9.70;8.90;;;25.00;45.20;;;;;;5084440;28;20444;-64
2022/08/17 12:06:16;;;;;;;10.63;9.73;;;25.00;45.30;;;;;;5081083;28;20536;-64
2022/08/17 12:08:46;;;;;;;10.17;9.30;;;25.00;45.20;;;;;;5070815;27;20528;-68
2022/08/17 12:11:22;;;;;;;9.80;9.20;;;25.00;45.30;;;;;;5080928;27;20483;-65
2022/08/17 12:13:51;;;;;;;8.83;8.23;;;25.00;45.30;;;;;;5071357;27;20455;-64
2022/08/17 12:16:19;;;;;;;8.40;7.80;;;25.10;45.40;;;;;;5075222;27;20463;-67
2022/08/17 12:18:57;;;;;;;9.33;8.63;;;25.10;45.40;;;;;;5073887;27;20529;-65
2022/08/17 12:21:22;;;;;;;7.97;7.57;;;25.10;45.40;;;;;;5078443;27;20460;-67
2022/08/17 12:24:05;;;;;;;8.30;7.80;;;25.10;45.50;;;;;;5078203;27;20526;-67
2022/08/17 12:26:33;;;;;;;10.40;9.60;;;25.00;45.50;;;;;;5083469;27;20562;-63
2022/08/17 12:29:10;;;;;;;8.83;8.23;;;25.00;45.50;;;;;;5082645;28;20475;-67
2022/08/17 12:31:43;;;;;;;8.60;8.10;;;25.10;45.60;;;;;;5080055;28;20927;-65
2022/08/17 12:34:17;;;;;;;8.53;8.03;;;25.00;45.70;;;;;;5074364;27;20581;-65
2022/08/17 12:36:43;;;;;;;8.37;7.87;;;25.00;45.70;;;;;;5075830;27;20445;-65
2022/08/17 12:39:09;;;;;;;9.07;8.53;;;25.00;45.70;;;;;;5072012;27;20486;-69
2022/08/17 12:41:39;;;;;;;8.53;7.93;;;25.00;45.80;;;;;;5082223;27;20846;-72
2022/08/17 12:44:27;;;;;;;9.07;8.33;;;25.00;45.80;;;;;;5072571;27;20227;-65
2022/08/17 12:47:05;;;;;;;9.03;8.30;;;25.10;45.90;;;;;;5076649;27;20442;-65
2022/08/17 12:49:34;;;;;;;9.83;9.23;;;25.00;46.00;;;;;;5081368;27;20492;-65
2022/08/17 12:52:25;;;;;;;8.50;8.00;;;25.00;46.00;;;;;;5080465;28;20461;-65
2022/08/17 12:55:06;;;;;;;7.87;7.43;;;25.00;46.00;;;;;;5070633;28;20457;-65
2022/08/17 12:57:45;;;;;;;8.60;8.00;;;25.00;46.10;;;;;;5079659;27;21026;-68
2022/08/17 13:00:20;;;;;;;8.60;8.00;;;25.00;46.20;;;;;;5079764;28;20454;-66
2022/08/17 13:03:02;;;;;;;9.07;8.37;;;25.00;46.20;;;;;;5076870;27;20457;-64
2022/08/17 13:05:36;;;;;;;10.93;10.03;;;25.00;46.20;;;;;;5077358;27;20967;-63
2022/08/17 13:08:13;;;;;;;11.87;11.00;;;25.00;46.30;;;;;;5075061;27;20465;-60
2022/08/17 13:10:38;;;;;;;11.47;10.40;;;25.00;46.30;;;;;;5064423;28;20541;-59
2022/08/17 13:13:26;;;;;;;11.40;10.40;;;25.00;46.40;;;;;;5081977;28;20556;-64
2022/08/17 13:16:01;;;;;;;9.97;9.17;;;25.00;47.20;;;;;;5078415;27;20261;-61
2022/08/17 13:18:37;;;;;;;10.30;9.50;;;25.00;46.50;;;;;;5078352;27;20464;-64
2022/08/17 13:21:05;;;;;;;11.53;10.53;;;25.00;46.50;;;;;;5077852;27;20583;-60
2022/08/17 13:23:31;;;;;;;10.67;9.67;;;25.00;46.50;;;;;;5077385;27;20483;-64
2022/08/17 13:26:05;;;;;;;10.67;9.87;;;25.00;46.40;;;;;;5079682;27;20461;-59
2022/08/17 13:28:32;;;;;;;9.53;8.90;;;25.00;46.50;;;;;;5077524;28;20445;-61
2022/08/17 13:31:31;;;;;;;9.73;9.03;;;25.00;46.50;;;;;;5080968;27;20437;-63
2022/08/17 13:34:25;;;;;;;13.57;12.37;;;25.00;46.50;;;;;;5074196;27;20454;-61
2022/08/17 13:37:12;;;;;;;12.33;11.43;;;25.00;46.50;;;;;;5063495;27;20957;-64
2022/08/17 13:59:51;;;;;;;13.60;12.43;;;24.70;46.10;;;;;;5032598;27;1405056;-66
2022/08/17 14:02:19;;;;;;;12.90;11.90;;;24.70;47.00;;;;;;5063023;28;20249;-62
2022/08/17 14:04:46;;;;;;;14.33;13.13;;;24.70;47.00;;;;;;5065333;28;20452;-60
2022/08/17 14:07:12;;;;;;;13.57;12.47;;;24.70;47.00;;;;;;5066299;27;21027;-60
2022/08/17 14:09:44;;;;;;;15.63;14.27;;;24.70;46.90;;;;;;5069423;27;20560;-62
2022/08/17 14:12:12;;;;;;;14.77;13.50;;;24.80;47.00;;;;;;5061712;27;20739;-69